Terminal Aerodrome Forecast
Issued by NWS

Home | Current Version | Previous Version | Text Only | Print | Product List | Glossary On
Versions: 1 2 3 4 5 6 7 8 9 10 11 12 13 14
663
FTUS45 KTFX 122332
TAFHLN
TAF
KHLN 122332Z 1300/1324 VRB05KT P6SM SCT070 BKN120
     FM130600 VRB05KT P6SM VCSH SCT040 BKN070
     FM131000 27011KT P6SM VCSH SCT025 OVC040 PROB30 1311/1316 5SM
      -RASN BR BKN025
     FM131700 28015G25KT P6SM VCSH SCT040 BKN070=

USA.gov is the U.S. government's official web portal to all federal, state and local government web resources and services.